createdAt,value
2018-06-04T00:00:59.545Z,19.50
2018-06-04T00:01:59.724Z,20.30
2018-06-04T00:02:59.924Z,19.40
2018-06-04T00:04:00.139Z,19.60
2018-06-04T00:05:00.306Z,18.90
2018-06-04T00:06:00.481Z,20.50
2018-06-04T00:07:00.686Z,19.20
2018-06-04T00:08:00.852Z,19.20
2018-06-04T00:09:01.035Z,20.00
2018-06-04T00:10:01.252Z,20.40
2018-06-04T00:11:01.394Z,20.30
2018-06-04T00:12:01.575Z,21.60
2018-06-04T00:13:01.769Z,18.80
2018-06-04T00:14:01.930Z,20.30
2018-06-04T00:15:02.149Z,19.60
2018-06-04T00:16:02.359Z,19.60
2018-06-04T00:17:02.528Z,20.60
2018-06-04T00:18:02.708Z,21.20
2018-06-04T00:19:02.930Z,24.60
2018-06-04T00:20:03.116Z,20.10
2018-06-04T00:21:03.267Z,19.90
2018-06-04T00:22:03.476Z,21.30
2018-06-04T00:23:03.630Z,20.40
2018-06-04T00:24:03.811Z,100.70
2018-06-04T00:25:03.989Z,22.40
2018-06-04T00:26:04.171Z,22.20
2018-06-04T00:27:04.359Z,23.20
2018-06-04T00:28:04.541Z,23.50
2018-06-04T00:29:04.749Z,20.80
2018-06-04T00:30:04.943Z,25.10
2018-06-04T00:31:05.180Z,23.10
2018-06-04T00:32:05.306Z,23.20
2018-06-04T00:33:06.426Z,22.90
2018-06-04T00:34:05.755Z,21.70
2018-06-04T00:35:05.924Z,24.50
2018-06-04T00:36:06.136Z,23.50
2018-06-04T00:37:06.314Z,26.40
2018-06-04T00:38:06.494Z,24.10
2018-06-04T00:39:06.649Z,25.10
2018-06-04T00:40:06.842Z,22.90
2018-06-04T00:41:07.076Z,23.50
2018-06-04T00:42:07.225Z,22.70
2018-06-04T00:43:07.378Z,24.40
2018-06-04T00:44:07.591Z,25.50
2018-06-04T00:45:07.734Z,24.10
2018-06-04T00:46:07.929Z,22.30
2018-06-04T00:47:08.134Z,25.90
2018-06-04T00:48:08.288Z,27.10
2018-06-04T00:49:08.455Z,23.90
2018-06-04T00:50:08.683Z,33.30
2018-06-04T00:51:08.849Z,26.20
2018-06-04T00:52:09.027Z,26.00
2018-06-04T00:53:09.225Z,24.90
2018-06-04T00:54:09.351Z,27.10
2018-06-04T00:55:09.537Z,25.50
2018-06-04T00:56:09.725Z,25.70
2018-06-04T00:57:09.964Z,24.80
2018-06-04T00:58:10.098Z,24.00
2018-06-04T00:59:10.273Z,23.20
2018-06-04T01:00:10.477Z,23.20
2018-06-04T01:01:10.649Z,21.50
2018-06-04T01:02:10.850Z,24.60
2018-06-04T01:03:10.998Z,23.00
2018-06-04T01:04:11.360Z,23.20
2018-06-04T01:05:11.455Z,22.70
2018-06-04T01:06:11.644Z,25.40
2018-06-04T01:07:11.810Z,24.50
2018-06-04T01:08:12.019Z,22.80
2018-06-04T01:09:12.198Z,22.70
2018-06-04T01:10:12.498Z,26.70
2018-06-04T01:11:12.550Z,23.70
2018-06-04T01:12:12.726Z,25.50
2018-06-04T01:13:12.911Z,25.30
2018-06-04T01:14:13.073Z,25.90
2018-06-04T01:15:15.059Z,27.00
2018-06-04T01:16:13.418Z,25.50
2018-06-04T01:17:13.634Z,26.00
2018-06-04T01:18:13.775Z,27.20
2018-06-04T01:19:13.969Z,28.20
2018-06-04T01:20:14.160Z,42.60
2018-06-04T01:21:14.355Z,26.40
2018-06-04T01:22:14.531Z,27.90
2018-06-04T01:23:14.715Z,27.10
2018-06-04T01:24:14.919Z,26.20
2018-06-04T01:25:15.095Z,26.10
2018-06-04T01:26:15.280Z,29.90
2018-06-04T01:27:15.449Z,29.20
2018-06-04T01:28:15.644Z,31.20
2018-06-04T01:29:15.816Z,31.80
2018-06-04T01:30:16.010Z,25.80
2018-06-04T01:31:16.207Z,30.20
2018-06-04T01:32:16.400Z,29.60
2018-06-04T01:33:16.575Z,31.40
2018-06-04T01:34:16.725Z,30.90
2018-06-04T01:35:16.930Z,29.50
2018-06-04T01:36:17.104Z,31.40
2018-06-04T01:37:17.296Z,30.70
2018-06-04T01:38:17.532Z,30.10
2018-06-04T01:39:17.676Z,29.30
2018-06-04T01:40:17.862Z,31.40
2018-06-04T01:41:18.040Z,31.00
2018-06-04T01:42:18.229Z,28.00
2018-06-04T01:43:18.439Z,27.80
2018-06-04T01:44:18.592Z,28.50
2018-06-04T01:45:18.773Z,27.80
2018-06-04T01:46:18.955Z,27.20
2018-06-04T01:47:19.153Z,28.10
2018-06-04T01:48:19.328Z,29.10
2018-06-04T01:49:19.525Z,27.20
2018-06-04T01:50:19.689Z,29.70
2018-06-04T01:51:19.879Z,29.00
2018-06-04T01:52:20.066Z,29.70
2018-06-04T01:53:20.279Z,27.40
2018-06-04T01:54:20.439Z,30.60
2018-06-04T01:55:20.641Z,31.50
2018-06-04T01:56:20.794Z,33.00
2018-06-04T01:57:20.978Z,30.40
2018-06-04T01:58:21.216Z,30.30
2018-06-04T01:59:21.335Z,26.80
2018-06-04T02:00:21.519Z,27.90
2018-06-04T02:01:21.700Z,29.00
2018-06-04T02:02:21.924Z,29.40
2018-06-04T02:03:22.096Z,29.70
2018-06-04T02:04:22.269Z,30.20
2018-06-04T02:05:22.441Z,29.20
2018-06-04T02:06:22.624Z,31.10
2018-06-04T02:07:22.823Z,29.90
2018-06-04T02:08:23.021Z,30.40
2018-06-04T02:09:23.184Z,28.50
2018-06-04T02:10:23.329Z,31.00
2018-06-04T02:11:24.520Z,30.10
2018-06-04T02:12:23.677Z,31.40
2018-06-04T02:13:23.859Z,30.50
2018-06-04T02:14:24.099Z,29.70
2018-06-04T02:15:24.231Z,33.60
2018-06-04T02:16:24.421Z,32.30
2018-06-04T02:17:24.613Z,34.20
2018-06-04T02:18:24.799Z,34.90
2018-06-04T02:19:25.013Z,32.60
2018-06-04T02:20:25.149Z,32.30
2018-06-04T02:21:25.325Z,36.50
2018-06-04T02:22:25.518Z,32.00
2018-06-04T02:23:25.704Z,32.10
2018-06-04T02:24:25.917Z,33.40
2018-06-04T02:25:26.076Z,33.70
2018-06-04T02:26:26.282Z,57.10
2018-06-04T02:27:26.462Z,32.20
2018-06-04T02:28:26.603Z,30.70
2018-06-04T02:29:26.789Z,32.70
2018-06-04T02:30:26.970Z,30.30
2018-06-04T02:31:27.201Z,34.30
2018-06-04T02:32:27.348Z,33.60
2018-06-04T02:33:27.581Z,33.70
2018-06-04T02:34:27.724Z,32.40
2018-06-04T02:35:27.912Z,33.00
2018-06-04T02:36:28.077Z,32.40
2018-06-04T02:37:28.287Z,37.90
2018-06-04T02:38:28.470Z,38.70
2018-06-04T02:39:28.629Z,35.50
2018-06-04T02:40:28.890Z,36.30
2018-06-04T02:41:29.036Z,36.80
2018-06-04T02:42:29.158Z,60.70
2018-06-04T02:43:29.341Z,37.10
2018-06-04T02:44:29.536Z,41.90
2018-06-04T02:45:29.708Z,36.10
2018-06-04T02:46:29.880Z,37.80
2018-06-04T02:47:30.138Z,41.00
2018-06-04T02:48:30.239Z,37.30
2018-06-04T02:49:30.465Z,43.70
2018-06-04T02:50:30.637Z,40.60
2018-06-04T02:51:30.830Z,39.40
2018-06-04T02:52:30.958Z,39.20
2018-06-04T02:53:31.167Z,37.80
2018-06-04T02:54:31.312Z,37.90
2018-06-04T02:55:31.510Z,38.40
2018-06-04T02:56:31.688Z,39.60
2018-06-04T02:57:31.863Z,40.70
2018-06-04T02:58:32.066Z,41.50
2018-06-04T02:59:32.236Z,39.80
2018-06-04T03:00:32.410Z,89.40
2018-06-04T03:01:32.616Z,40.00
2018-06-04T03:02:32.816Z,38.50
2018-06-04T03:03:33.033Z,37.20
2018-06-04T03:04:33.177Z,40.90
2018-06-04T03:05:33.342Z,39.70
2018-06-04T03:06:33.529Z,39.70
2018-06-04T03:07:33.701Z,39.80
2018-06-04T03:08:33.878Z,40.20
2018-06-04T03:09:34.056Z,40.70
2018-06-04T03:10:34.285Z,44.60
2018-06-04T03:11:34.413Z,40.00
2018-06-04T03:12:34.603Z,38.80
2018-06-04T03:13:34.796Z,43.10
2018-06-04T03:14:34.972Z,38.00
2018-06-04T03:15:35.149Z,37.90
2018-06-04T03:16:35.329Z,37.30
2018-06-04T03:17:35.505Z,36.30
2018-06-04T03:18:35.714Z,34.60
2018-06-04T03:19:35.866Z,41.40
2018-06-04T03:20:36.049Z,39.20
2018-06-04T03:21:36.219Z,43.90
2018-06-04T03:22:36.404Z,49.20
2018-06-04T03:23:36.607Z,49.80
2018-06-04T03:24:36.775Z,54.90
2018-06-04T03:25:36.965Z,54.30
2018-06-04T03:26:37.210Z,61.90
2018-06-04T03:27:37.323Z,53.50
2018-06-04T03:28:37.545Z,54.10
2018-06-04T03:29:37.685Z,66.20
2018-06-04T03:30:37.931Z,67.50
2018-06-04T03:31:38.084Z,73.40
2018-06-04T03:32:38.231Z,65.30
2018-06-04T03:33:38.414Z,64.30
2018-06-04T03:34:38.624Z,76.20
2018-06-04T03:35:38.784Z,70.40
2018-06-04T03:36:38.974Z,75.70
2018-06-04T03:37:39.151Z,72.60
2018-06-04T03:38:39.354Z,72.20
2018-06-04T03:39:39.507Z,69.00
2018-06-04T03:40:39.747Z,47.00
2018-06-04T03:41:39.919Z,46.20
2018-06-04T03:42:40.084Z,46.30
2018-06-04T03:43:40.266Z,46.80
2018-06-04T03:44:40.445Z,44.60
2018-06-04T03:45:40.638Z,44.80
2018-06-04T03:46:40.843Z,43.80
2018-06-04T03:47:40.980Z,43.00
2018-06-04T03:48:41.157Z,46.60
2018-06-04T03:49:41.338Z,47.90
2018-06-04T03:50:41.516Z,47.00
2018-06-04T03:51:41.714Z,43.50
2018-06-04T03:52:41.871Z,42.70
2018-06-04T03:53:42.063Z,44.40
2018-06-04T03:54:42.278Z,42.50
2018-06-04T03:55:42.468Z,52.10
2018-06-04T03:56:42.638Z,45.60
2018-06-04T03:57:42.776Z,46.30
2018-06-04T03:58:42.966Z,51.00
2018-06-04T03:59:43.132Z,50.80
2018-06-04T04:00:43.336Z,57.40
2018-06-04T04:01:43.575Z,45.10
2018-06-04T04:02:43.665Z,40.40
2018-06-04T04:03:43.853Z,40.80
2018-06-04T04:04:44.035Z,48.20
2018-06-04T04:05:44.202Z,41.10
2018-06-04T04:06:44.442Z,42.50
2018-06-04T04:07:44.601Z,40.80
2018-06-04T04:08:44.768Z,40.10
2018-06-04T04:09:44.955Z,38.70
2018-06-04T04:10:45.138Z,36.00
2018-06-04T04:11:45.324Z,34.00
2018-06-04T04:12:45.479Z,35.60
2018-06-04T04:13:45.688Z,32.60
2018-06-04T04:14:45.852Z,33.60
2018-06-04T04:15:46.099Z,32.40
2018-06-04T04:16:46.232Z,33.60
2018-06-04T04:17:46.412Z,33.40
2018-06-04T04:18:46.617Z,30.60
2018-06-04T04:19:46.806Z,31.50
2018-06-04T04:20:46.983Z,37.30
2018-06-04T04:21:47.166Z,33.20
2018-06-04T04:22:47.336Z,31.00
2018-06-04T04:23:47.500Z,33.30
2018-06-04T04:24:47.691Z,29.20
2018-06-04T04:25:47.877Z,31.10
2018-06-04T04:26:48.073Z,30.70
2018-06-04T04:27:48.317Z,29.40
2018-06-04T04:28:48.428Z,31.60
2018-06-04T04:29:48.625Z,29.40
2018-06-04T04:30:48.792Z,34.40
2018-06-04T04:31:48.964Z,49.70
2018-06-04T04:32:49.129Z,28.10
2018-06-04T04:33:49.316Z,32.50
2018-06-04T04:34:49.503Z,30.70
2018-06-04T04:35:49.709Z,27.70
2018-06-04T04:36:49.874Z,31.40
2018-06-04T04:37:50.090Z,30.40
2018-06-04T04:38:50.252Z,28.90
2018-06-04T04:39:50.428Z,29.00
2018-06-04T04:40:50.590Z,29.80
2018-06-04T04:41:50.786Z,29.30
2018-06-04T04:42:50.949Z,27.50
2018-06-04T04:43:51.133Z,28.20
2018-06-04T04:44:51.323Z,24.50
2018-06-04T04:45:51.511Z,24.30
2018-06-04T04:46:51.696Z,24.30
2018-06-04T04:47:51.877Z,22.80
2018-06-04T04:48:52.121Z,21.20
2018-06-04T04:49:52.286Z,21.70
2018-06-04T04:50:52.416Z,21.50
2018-06-04T04:51:52.617Z,20.70
2018-06-04T04:52:52.806Z,19.50
2018-06-04T04:53:53.061Z,19.10
2018-06-04T04:54:53.183Z,19.80
2018-06-04T04:55:53.356Z,19.60
2018-06-04T04:56:53.528Z,19.00
2018-06-04T04:57:53.729Z,19.20
2018-06-04T04:58:53.934Z,19.70
2018-06-04T04:59:54.068Z,19.30
2018-06-04T05:00:54.277Z,18.50
2018-06-04T05:01:54.443Z,17.70
2018-06-04T05:02:54.624Z,18.00
2018-06-04T05:03:54.835Z,17.70
2018-06-04T05:04:55.021Z,18.10
2018-06-04T05:05:55.256Z,17.60
2018-06-04T05:06:55.396Z,19.00
2018-06-04T05:07:55.569Z,18.20
2018-06-04T05:08:55.747Z,17.50
2018-06-04T05:09:55.952Z,17.50
2018-06-04T05:10:56.154Z,17.80
2018-06-04T05:11:56.362Z,16.90
2018-06-04T05:12:56.551Z,16.10
2018-06-04T05:13:56.756Z,15.30
2018-06-04T05:14:56.908Z,15.90
2018-06-04T05:15:57.097Z,15.90
2018-06-04T05:16:57.304Z,16.10
2018-06-04T05:17:57.490Z,15.60
2018-06-04T05:18:57.648Z,15.80
2018-06-04T05:19:57.862Z,15.30
2018-06-04T05:20:58.071Z,16.60
2018-06-04T05:21:58.236Z,15.70
2018-06-04T05:22:58.406Z,16.30
2018-06-04T05:23:58.624Z,16.40
2018-06-04T05:24:58.809Z,15.50
2018-06-04T05:25:58.974Z,16.30
2018-06-04T05:26:59.161Z,15.80
2018-06-04T05:27:59.380Z,15.70
2018-06-04T05:28:59.551Z,15.60
2018-06-04T05:29:59.770Z,15.70
2018-06-04T05:30:59.970Z,15.70
2018-06-04T05:32:00.115Z,16.10
2018-06-04T05:33:00.293Z,16.30
2018-06-04T05:34:00.523Z,14.90
2018-06-04T05:35:00.694Z,16.10
2018-06-04T05:36:00.877Z,16.40
2018-06-04T05:37:01.050Z,16.00
2018-06-04T05:38:01.268Z,16.00
2018-06-04T05:39:01.415Z,16.90
2018-06-04T05:40:01.662Z,16.40
2018-06-04T05:41:01.792Z,16.80
2018-06-04T05:42:02.023Z,16.30
2018-06-04T05:43:02.211Z,16.20
2018-06-04T05:44:02.407Z,15.70
2018-06-04T05:45:02.596Z,117.60
2018-06-04T05:46:02.804Z,17.20
2018-06-04T05:47:03.000Z,16.50
2018-06-04T05:48:03.190Z,17.40
2018-06-04T05:49:03.387Z,17.40
2018-06-04T05:50:03.618Z,17.00
2018-06-04T05:51:03.787Z,16.50
2018-06-04T05:52:03.980Z,18.40
2018-06-04T05:53:04.213Z,16.70
2018-06-04T05:54:04.372Z,17.50
2018-06-04T05:55:04.566Z,16.80
2018-06-04T05:56:04.747Z,17.00
2018-06-04T05:57:04.940Z,17.10
2018-06-04T05:58:05.145Z,17.60
2018-06-04T05:59:05.490Z,16.60
2018-06-04T06:00:05.555Z,17.10
2018-06-04T06:01:05.793Z,17.00
2018-06-04T06:02:05.976Z,17.00
2018-06-04T06:03:06.133Z,17.80
2018-06-04T06:04:06.299Z,17.30
2018-06-04T06:05:06.511Z,17.00
2018-06-04T06:06:06.692Z,17.70
2018-06-04T06:07:06.919Z,17.40
2018-06-04T06:08:07.070Z,17.70
2018-06-04T06:09:07.276Z,17.70
2018-06-04T06:10:07.485Z,18.10
2018-06-04T06:11:07.695Z,17.90
2018-06-04T06:12:07.869Z,18.20
2018-06-04T06:13:08.048Z,17.80
2018-06-04T06:14:08.267Z,18.10
2018-06-04T06:15:08.431Z,18.20
2018-06-04T06:16:08.677Z,19.00
2018-06-04T06:17:08.863Z,18.00
2018-06-04T06:18:09.000Z,21.80
2018-06-04T06:19:09.184Z,23.00
2018-06-04T06:20:09.368Z,18.30
2018-06-04T06:21:09.568Z,18.30
2018-06-04T06:22:09.758Z,18.10
2018-06-04T06:23:09.937Z,18.30
2018-06-04T06:24:10.120Z,18.60
2018-06-04T06:25:10.344Z,18.10
2018-06-04T06:26:10.508Z,18.60
2018-06-04T06:27:10.713Z,18.10
2018-06-04T06:28:10.897Z,18.10
2018-06-04T06:29:11.084Z,17.80
2018-06-04T06:30:11.295Z,18.10
2018-06-04T06:31:11.457Z,18.20
2018-06-04T06:32:11.694Z,18.00
2018-06-04T06:33:11.832Z,17.70
2018-06-04T06:34:12.047Z,17.80
2018-06-04T06:35:12.229Z,19.50
2018-06-04T06:36:12.418Z,17.70
2018-06-04T06:37:12.640Z,18.10
2018-06-04T06:38:12.812Z,18.70
2018-06-04T06:39:13.001Z,19.40
2018-06-04T06:40:13.205Z,18.40
2018-06-04T06:41:13.404Z,18.60
2018-06-04T06:42:13.621Z,18.80
2018-06-04T06:43:13.822Z,17.60
2018-06-04T06:44:14.065Z,18.10
2018-06-04T06:45:14.182Z,17.90
2018-06-04T06:46:14.360Z,17.40
2018-06-04T06:47:14.574Z,17.70
2018-06-04T06:48:14.776Z,17.70
2018-06-04T06:49:14.928Z,38.00
2018-06-04T06:50:15.130Z,17.90
2018-06-04T06:51:15.323Z,17.80
2018-06-04T06:52:15.543Z,17.90
2018-06-04T06:53:15.721Z,17.30
2018-06-04T06:54:15.900Z,17.10
2018-06-04T06:55:16.098Z,16.10
2018-06-04T06:56:16.290Z,16.20
2018-06-04T06:57:16.473Z,16.10
2018-06-04T06:58:16.744Z,17.60
2018-06-04T06:59:16.843Z,17.10
2018-06-04T07:00:17.061Z,17.30
2018-06-04T07:01:17.237Z,16.60
2018-06-04T07:02:17.412Z,16.60
2018-06-04T07:03:17.614Z,17.30
2018-06-04T07:04:17.824Z,17.00
2018-06-04T07:05:17.994Z,17.50
2018-06-04T07:06:18.152Z,16.50
2018-06-04T07:07:18.397Z,23.00
2018-06-04T07:08:18.530Z,95.20
2018-06-04T07:09:18.739Z,16.00
2018-06-04T07:10:18.944Z,15.90
2018-06-04T07:11:19.102Z,167.10
2018-06-04T07:12:19.298Z,26.10
2018-06-04T07:13:19.483Z,15.10
2018-06-04T07:14:19.730Z,15.20
2018-06-04T07:15:19.910Z,30.90
2018-06-04T07:16:20.097Z,15.30
2018-06-04T07:17:20.247Z,15.40
2018-06-04T07:18:20.421Z,16.10
2018-06-04T07:19:20.713Z,15.90
2018-06-04T07:20:20.829Z,20.20
2018-06-04T07:21:21.009Z,16.10
2018-06-04T07:22:21.203Z,15.60
2018-06-04T07:23:21.400Z,15.00
2018-06-04T07:24:21.575Z,15.00
2018-06-04T07:25:21.763Z,15.00
2018-06-04T07:26:21.953Z,14.80
2018-06-04T07:27:22.166Z,13.60
2018-06-04T07:28:22.346Z,14.00
2018-06-04T07:29:22.529Z,14.40
2018-06-04T07:30:22.727Z,14.40
2018-06-04T07:31:22.971Z,14.90
2018-06-04T07:32:23.120Z,14.40
2018-06-04T07:33:23.314Z,14.50
2018-06-04T07:34:23.481Z,14.40
2018-06-04T07:35:23.678Z,15.00
2018-06-04T07:36:23.910Z,14.00
2018-06-04T07:37:24.121Z,14.60
2018-06-04T07:38:24.287Z,13.40
2018-06-04T07:39:24.520Z,14.40
2018-06-04T07:40:24.633Z,14.20
2018-06-04T07:41:24.832Z,14.30
2018-06-04T07:42:25.029Z,13.90
2018-06-04T07:43:25.222Z,14.20
2018-06-04T07:44:25.410Z,14.30
2018-06-04T07:45:25.595Z,14.30
2018-06-04T07:46:25.782Z,13.90
2018-06-04T07:47:25.962Z,13.60
2018-06-04T07:48:26.163Z,13.00
2018-06-04T07:49:26.359Z,14.00
2018-06-04T07:50:26.555Z,13.60
2018-06-04T07:51:26.753Z,13.00
2018-06-04T07:52:26.947Z,13.60
2018-06-04T07:53:27.163Z,13.60
2018-06-04T07:54:27.368Z,13.20
2018-06-04T07:55:27.572Z,14.20
2018-06-04T07:56:27.747Z,13.20
2018-06-04T07:57:27.946Z,12.90
2018-06-04T07:58:28.154Z,12.70
2018-06-04T07:59:28.369Z,13.60
2018-06-04T08:00:28.570Z,13.20
2018-06-04T08:01:28.799Z,12.90
2018-06-04T08:02:28.994Z,12.30
2018-06-04T08:03:29.196Z,13.70
2018-06-04T08:04:29.449Z,12.30
2018-06-04T08:05:29.593Z,11.90
2018-06-04T08:06:29.864Z,12.80
2018-06-04T08:07:29.999Z,13.20
2018-06-04T08:08:30.181Z,12.60
2018-06-04T08:09:30.374Z,11.80
2018-06-04T08:10:30.564Z,12.40
2018-06-04T08:11:30.765Z,12.30
2018-06-04T08:12:30.978Z,12.30
2018-06-04T08:13:31.165Z,12.30
2018-06-04T08:14:31.335Z,11.90
2018-06-04T08:15:31.539Z,10.80
2018-06-04T08:16:31.733Z,10.90
2018-06-04T08:17:31.949Z,10.00
2018-06-04T08:18:32.118Z,9.80
2018-06-04T08:19:32.311Z,10.50
2018-06-04T08:20:32.506Z,10.80
2018-06-04T08:21:32.708Z,11.30
2018-06-04T08:22:32.900Z,11.40
2018-06-04T08:23:33.138Z,10.30
2018-06-04T08:24:33.357Z,9.30
2018-06-04T08:25:33.556Z,10.50
2018-06-04T08:26:33.751Z,10.00
2018-06-04T08:27:34.065Z,9.90
2018-06-04T08:28:34.167Z,10.10
2018-06-04T08:29:34.360Z,9.30
2018-06-04T08:30:34.579Z,9.30
2018-06-04T08:31:34.751Z,8.70
2018-06-04T08:32:34.967Z,8.80
2018-06-04T08:33:35.151Z,8.50
2018-06-04T08:34:35.353Z,8.70
2018-06-04T08:35:35.670Z,8.50
2018-06-04T08:36:36.876Z,8.40
2018-06-04T08:37:36.033Z,8.00
2018-06-04T08:38:36.222Z,7.80
2018-06-04T08:39:36.413Z,7.90
2018-06-04T08:40:36.602Z,8.20
2018-06-04T08:41:36.835Z,7.70
2018-06-04T08:42:37.052Z,7.90
2018-06-04T08:43:37.189Z,8.50
2018-06-04T08:44:37.378Z,7.20
2018-06-04T08:45:37.600Z,7.10
2018-06-04T08:46:37.773Z,7.70
2018-06-04T08:47:37.974Z,7.10
2018-06-04T08:48:38.186Z,7.80
2018-06-04T08:49:38.376Z,8.10
2018-06-04T08:50:38.587Z,8.10
2018-06-04T08:51:38.769Z,8.10
2018-06-04T08:52:38.968Z,7.30
2018-06-04T08:53:39.176Z,7.20
2018-06-04T08:54:39.358Z,7.10
2018-06-04T08:55:40.229Z,7.00
2018-06-04T08:56:39.709Z,7.00
2018-06-04T08:57:39.929Z,7.80
2018-06-04T08:58:40.133Z,7.90
2018-06-04T08:59:40.311Z,7.60
2018-06-04T09:00:40.517Z,7.90
2018-06-04T09:01:40.821Z,8.70
2018-06-04T09:02:40.910Z,8.00
2018-06-04T09:03:41.085Z,7.20
2018-06-04T09:04:41.283Z,7.10
2018-06-04T09:05:41.478Z,6.80
2018-06-04T09:06:41.667Z,7.30
2018-06-04T09:07:41.862Z,7.50
2018-06-04T09:08:42.058Z,7.30
2018-06-04T09:09:42.253Z,6.90
2018-06-04T09:10:42.461Z,7.20
2018-06-04T09:11:42.639Z,7.50
2018-06-04T09:12:42.894Z,7.50
2018-06-04T09:13:43.092Z,6.40
2018-06-04T09:14:43.264Z,6.90
2018-06-04T09:15:43.428Z,7.70
2018-06-04T09:16:43.581Z,6.90
2018-06-04T09:17:43.788Z,6.70
2018-06-04T09:18:43.977Z,6.70
2018-06-04T09:19:44.179Z,7.40
2018-06-04T09:20:44.375Z,6.10
2018-06-04T09:21:44.604Z,6.40
2018-06-04T09:22:44.764Z,6.70
2018-06-04T09:23:44.961Z,7.20
2018-06-04T09:24:45.777Z,5.90
2018-06-04T09:25:45.316Z,5.50
2018-06-04T09:26:45.473Z,7.60
2018-06-04T09:27:45.674Z,7.20
2018-06-04T09:28:45.895Z,7.10
2018-06-04T09:29:46.105Z,7.20
2018-06-04T09:30:46.301Z,6.80
2018-06-04T09:31:46.499Z,6.30
2018-06-04T09:32:46.665Z,6.50
2018-06-04T09:33:47.671Z,7.40
2018-06-04T09:34:47.120Z,6.80
2018-06-04T09:35:47.351Z,6.10
2018-06-04T09:36:47.725Z,6.10
2018-06-04T09:37:47.727Z,6.10
2018-06-04T09:38:48.003Z,5.80
2018-06-04T09:39:48.131Z,6.10
2018-06-04T09:40:48.264Z,5.90
2018-06-04T09:41:48.472Z,5.40
2018-06-04T09:42:48.705Z,5.70
2018-06-04T09:43:48.854Z,5.20
2018-06-04T09:44:49.027Z,5.30
2018-06-04T09:45:49.278Z,6.10
2018-06-04T09:46:49.456Z,6.00
2018-06-04T09:47:49.615Z,5.90
2018-06-04T09:48:49.815Z,5.50
2018-06-04T09:49:50.041Z,4.90
2018-06-04T09:50:50.207Z,5.50
2018-06-04T09:51:50.382Z,6.00
2018-06-04T09:52:50.570Z,6.00
2018-06-04T09:53:50.824Z,5.70
2018-06-04T09:54:50.935Z,5.70
2018-06-04T09:55:51.151Z,6.00
2018-06-04T09:56:51.335Z,5.90
2018-06-04T09:57:51.526Z,5.70
2018-06-04T09:58:51.714Z,5.70
2018-06-04T09:59:51.914Z,6.20
2018-06-04T10:00:52.109Z,5.70
2018-06-04T10:01:52.300Z,6.10
2018-06-04T10:02:52.491Z,5.70
2018-06-04T10:03:52.669Z,5.70
2018-06-04T10:04:52.939Z,6.00
2018-06-04T10:05:53.101Z,6.70
2018-06-04T10:06:53.258Z,5.90
2018-06-04T10:07:53.460Z,6.10
2018-06-04T10:08:53.701Z,6.00
2018-06-04T10:09:53.848Z,6.00
2018-06-04T10:10:54.074Z,5.90
2018-06-04T10:11:54.225Z,5.80
2018-06-04T10:12:54.398Z,6.30
2018-06-04T10:13:54.584Z,5.90
2018-06-04T10:14:54.816Z,5.80
2018-06-04T10:15:54.988Z,5.50
2018-06-04T10:16:55.161Z,5.30
2018-06-04T10:17:55.353Z,5.00
2018-06-04T10:18:55.554Z,5.20
2018-06-04T10:19:55.763Z,5.20
2018-06-04T10:20:56.052Z,5.30
2018-06-04T10:21:56.139Z,5.30
2018-06-04T10:22:56.323Z,6.20
2018-06-04T10:23:56.492Z,5.60
2018-06-04T10:24:56.684Z,5.00
2018-06-04T10:25:56.943Z,5.70
2018-06-04T10:26:57.077Z,5.10
2018-06-04T10:27:57.356Z,4.90
2018-06-04T10:28:57.454Z,5.60
2018-06-04T10:29:57.660Z,5.20
2018-06-04T10:30:57.860Z,4.30
2018-06-04T10:31:58.070Z,4.70
2018-06-04T10:32:58.197Z,5.10
2018-06-04T10:33:59.153Z,4.80
2018-06-04T10:34:58.597Z,4.60
2018-06-04T10:35:58.802Z,5.00
2018-06-04T10:36:58.954Z,4.80
2018-06-04T10:37:59.146Z,4.80
2018-06-04T10:38:59.343Z,4.80
2018-06-04T10:39:59.542Z,4.60
2018-06-04T10:40:59.727Z,4.50
2018-06-04T10:41:59.947Z,4.00
2018-06-04T10:43:00.114Z,4.30
2018-06-04T10:44:00.302Z,4.30
2018-06-04T10:45:00.467Z,4.30
2018-06-04T10:46:00.660Z,4.40
2018-06-04T10:47:00.845Z,4.60
2018-06-04T10:48:01.063Z,4.10
2018-06-04T10:49:01.235Z,4.10
2018-06-04T10:50:01.440Z,4.20
2018-06-04T10:51:01.609Z,4.20
2018-06-04T10:52:01.797Z,3.90
2018-06-04T10:53:01.969Z,3.80
2018-06-04T10:54:02.165Z,3.80
2018-06-04T10:55:02.361Z,3.80
2018-06-04T10:56:02.577Z,3.90
2018-06-04T10:57:02.734Z,4.70
2018-06-04T10:58:02.944Z,3.80
2018-06-04T10:59:03.143Z,4.00
2018-06-04T11:00:03.358Z,3.80
2018-06-04T11:01:03.521Z,4.20
2018-06-04T11:02:03.684Z,4.10
2018-06-04T11:03:03.905Z,4.00
2018-06-04T11:04:04.082Z,4.00
2018-06-04T11:05:04.317Z,4.00
2018-06-04T11:06:04.438Z,4.10
2018-06-04T11:07:05.177Z,3.70
2018-06-04T11:08:04.778Z,4.30
2018-06-04T11:09:05.010Z,4.70
2018-06-04T11:10:05.200Z,4.10
2018-06-04T11:11:05.359Z,4.10
2018-06-04T11:12:05.522Z,4.10
2018-06-04T11:13:05.725Z,4.20
2018-06-04T11:14:05.876Z,3.90
2018-06-04T11:15:06.064Z,4.10
2018-06-04T11:16:06.249Z,4.20
2018-06-04T11:17:06.438Z,3.80
2018-06-04T11:18:06.675Z,4.30
2018-06-04T11:19:06.918Z,3.90
2018-06-04T11:20:07.025Z,5.70
2018-06-04T11:21:07.207Z,4.20
2018-06-04T11:22:07.399Z,4.30
2018-06-04T11:23:07.621Z,4.30
2018-06-04T11:24:07.782Z,4.30
2018-06-04T11:25:07.969Z,4.00
2018-06-04T11:26:08.202Z,4.30
2018-06-04T11:27:08.357Z,4.20
2018-06-04T11:28:08.580Z,4.30
2018-06-04T11:29:08.783Z,3.90
2018-06-04T11:30:08.948Z,3.90
2018-06-04T11:31:09.131Z,4.10
2018-06-04T11:32:09.340Z,3.80
2018-06-04T11:33:09.559Z,3.80
2018-06-04T11:34:09.773Z,4.10
2018-06-04T11:35:09.890Z,3.60
2018-06-04T11:36:10.077Z,4.10
2018-06-04T11:37:10.262Z,3.90
2018-06-04T11:38:10.465Z,4.40
2018-06-04T11:39:10.637Z,3.90
2018-06-04T11:40:10.826Z,3.80
2018-06-04T11:41:11.033Z,3.70
2018-06-04T11:42:11.228Z,4.00
2018-06-04T11:43:11.403Z,3.90
2018-06-04T11:44:11.595Z,3.80
2018-06-04T11:45:11.806Z,4.30
2018-06-04T11:46:11.967Z,4.20
2018-06-04T11:47:12.165Z,4.20
2018-06-04T11:48:12.387Z,4.10
2018-06-04T11:49:12.586Z,4.20
2018-06-04T11:50:12.777Z,4.20
2018-06-04T11:51:13.082Z,4.10
2018-06-04T11:52:13.146Z,4.00
2018-06-04T11:53:13.324Z,3.90
2018-06-04T11:54:13.518Z,3.70
2018-06-04T11:55:13.741Z,4.10
2018-06-04T11:56:13.894Z,4.10
2018-06-04T11:57:14.074Z,4.00
2018-06-04T11:58:14.289Z,4.20
2018-06-04T11:59:14.453Z,3.50
2018-06-04T12:00:14.650Z,4.00
2018-06-04T12:01:14.834Z,4.20
2018-06-04T12:02:15.046Z,4.00
2018-06-04T12:03:15.240Z,4.10
2018-06-04T12:04:15.428Z,4.10
2018-06-04T12:05:15.626Z,4.00
2018-06-04T12:06:15.837Z,4.70
2018-06-04T12:07:16.017Z,4.10
2018-06-04T12:08:16.230Z,4.00
2018-06-04T12:09:16.444Z,4.10
2018-06-04T12:10:16.633Z,4.30
2018-06-04T12:11:16.807Z,4.00
2018-06-04T12:12:17.051Z,3.90
2018-06-04T12:13:17.180Z,4.00
2018-06-04T12:14:17.390Z,3.90
2018-06-04T12:15:17.573Z,3.80
2018-06-04T12:16:17.779Z,3.80
2018-06-04T12:17:17.981Z,4.80
2018-06-04T12:18:18.180Z,3.50
2018-06-04T12:19:18.329Z,4.00
2018-06-04T12:20:18.522Z,4.10
2018-06-04T12:21:18.783Z,4.00
2018-06-04T12:22:18.923Z,3.90
2018-06-04T12:23:19.090Z,4.10
2018-06-04T12:24:19.264Z,4.30
2018-06-04T12:25:19.471Z,4.00
2018-06-04T12:26:19.661Z,3.90
2018-06-04T12:27:19.843Z,3.90
2018-06-04T12:28:20.052Z,4.30
2018-06-04T12:29:20.264Z,4.40
2018-06-04T12:30:20.460Z,4.20
2018-06-04T12:31:20.638Z,3.90
2018-06-04T12:32:20.810Z,4.10
2018-06-04T12:33:20.998Z,3.90
2018-06-04T12:34:21.199Z,3.60
2018-06-04T12:35:21.393Z,4.30
2018-06-04T12:36:21.592Z,4.10
2018-06-04T12:37:21.799Z,3.60
2018-06-04T12:38:22.013Z,4.20
2018-06-04T12:39:22.186Z,3.70
2018-06-04T12:40:22.356Z,3.50
2018-06-04T12:41:22.549Z,4.10
2018-06-04T12:42:22.765Z,4.00
2018-06-04T12:43:22.933Z,4.20
2018-06-04T12:44:23.145Z,3.80
2018-06-04T12:45:23.326Z,4.10
2018-06-04T12:46:23.511Z,4.20
2018-06-04T12:47:23.698Z,4.80
2018-06-04T12:48:23.895Z,5.00
2018-06-04T12:49:24.107Z,5.20
2018-06-04T12:50:24.274Z,4.90
2018-06-04T12:51:24.464Z,4.80
2018-06-04T12:52:24.678Z,5.10
2018-06-04T12:53:25.701Z,4.90
2018-06-04T12:54:25.020Z,4.90
2018-06-04T12:55:25.224Z,4.40
2018-06-04T12:56:25.401Z,4.60
2018-06-04T12:57:25.652Z,4.70
2018-06-04T12:58:25.787Z,4.50
2018-06-04T12:59:25.986Z,4.90
2018-06-04T13:00:26.166Z,4.80
2018-06-04T13:01:26.358Z,4.30
2018-06-04T13:02:26.622Z,4.90
2018-06-04T13:03:26.778Z,4.90
2018-06-04T13:04:27.030Z,5.00